Time;durP1;ratioP1;P1;durP2;ratioP2;P2;SDS_P1;SDS_P2;PMS_P1;PMS_P2;Temp;Humidity;BMP_temperature;BMP_pressure;BME280_temperature;BME280_humidity;BME280_pressure;Samples;Min_cycle;Max_cycle;Signal;HPM_P1;HPM_P2
2023/12/03 00:01:26;;;;;;;;;;;2.00;99.90;;;;;;8437732;28;20362;-72
2023/12/03 00:05:28;;;;;;;;;;;2.00;99.90;;;;;;8426562;28;19924;-72
2023/12/03 00:09:30;;;;;;;;;;;2.00;99.90;;;;;;8429193;28;19964;-73
2023/12/03 00:13:32;;;;;;;;;;;2.00;99.90;;;;;;8418859;28;20283;-72
2023/12/03 00:17:33;;;;;;;;;;;2.00;99.90;;;;;;8413834;28;19955;-71
2023/12/03 00:21:35;;;;;;;;;;;2.00;99.90;;;;;;8430062;28;20420;-71
2023/12/03 00:31:25;;;;;;;;;;;2.10;99.90;;;;;;8431748;28;20003;-72
2023/12/03 00:35:26;;;;;;;;;;;2.10;99.90;;;;;;8426866;28;19924;-71
2023/12/03 00:39:28;;;;;;;;;;;2.10;99.90;;;;;;8428746;28;19924;-72
2023/12/03 00:43:45;;;;;;;;;;;2.10;99.90;;;;;;8427223;28;19936;-72
2023/12/03 00:47:47;;;;;;;;;;;2.10;99.90;;;;;;8418019;28;19931;-72
2023/12/03 00:51:49;;;;;;;;;;;2.10;99.90;;;;;;8424853;28;19931;-72
2023/12/03 00:55:50;;;;;;;;;;;2.10;99.90;;;;;;8420789;28;19925;-72
2023/12/03 00:59:52;;;;;;;;;;;2.20;99.90;;;;;;8426946;28;19931;-72
2023/12/03 01:03:53;;;;;;;;;;;2.20;99.90;;;;;;8438763;28;19924;-72
2023/12/03 01:07:55;;;;;;;;;;;2.20;99.90;;;;;;8424276;28;19924;-72
2023/12/03 01:11:57;;;;;;;;;;;2.20;99.90;;;;;;8430219;28;19975;-72
2023/12/03 01:15:59;;;;;;;;;;;2.20;99.90;;;;;;8428367;28;19924;-71
2023/12/03 01:20:01;;;;;;;;;;;2.20;99.90;;;;;;8462476;27;19932;-71
2023/12/03 01:24:02;;;;;;;;;;;2.20;99.90;;;;;;8420080;28;20790;-71
2023/12/03 01:28:04;;;;;;;;;;;2.30;99.90;;;;;;8425168;28;19924;-72
2023/12/03 01:32:06;;;;;;;;;;;2.30;99.90;;;;;;8420933;28;19970;-72
2023/12/03 01:36:08;;;;;;;;;;;2.30;99.90;;;;;;8434710;28;20363;-71
2023/12/03 01:40:10;;;;;;;;;;;2.30;99.90;;;;;;8424738;28;20435;-72
2023/12/03 01:44:11;;;;;;;;;;;2.30;99.90;;;;;;8426391;28;20311;-72
2023/12/03 01:48:13;;;;;;;;;;;2.40;99.90;;;;;;8426621;28;19924;-72
2023/12/03 01:52:15;;;;;;;;;;;2.40;99.90;;;;;;8418764;28;20355;-72
2023/12/03 01:56:17;;;;;;;;;;;2.40;99.90;;;;;;8427387;28;19960;-72
2023/12/03 02:00:19;;;;;;;;;;;2.40;99.90;;;;;;8420973;28;20335;-71
2023/12/03 02:04:21;;;;;;;;;;;2.40;99.90;;;;;;8419448;28;19924;-72
2023/12/03 02:08:23;;;;;;;;;;;2.40;99.90;;;;;;8416360;28;19924;-71
2023/12/03 02:12:25;;;;;;;;;;;2.50;99.90;;;;;;8419700;28;20272;-71
2023/12/03 02:16:28;;;;;;;;;;;2.50;99.90;;;;;;8416331;28;20347;-72
2023/12/03 02:20:30;;;;;;;;;;;2.50;99.90;;;;;;8426356;28;20387;-72
2023/12/03 02:24:32;;;;;;;;;;;2.50;99.90;;;;;;8421117;28;19958;-72
2023/12/03 02:28:34;;;;;;;;;;;2.50;99.90;;;;;;8422269;28;20042;-72
2023/12/03 02:32:35;;;;;;;;;;;2.50;99.90;;;;;;8421654;28;20371;-72
2023/12/03 02:36:37;;;;;;;;;;;2.50;99.90;;;;;;8425950;28;19924;-72
2023/12/03 02:40:39;;;;;;;;;;;2.60;99.90;;;;;;8433415;28;20428;-72
2023/12/03 02:44:41;;;;;;;;;;;2.60;99.90;;;;;;8428436;28;20425;-71
2023/12/03 02:48:43;;;;;;;;;;;2.60;99.90;;;;;;8425374;28;20390;-71
2023/12/03 02:52:44;;;;;;;;;;;2.60;99.90;;;;;;8426733;28;20011;-72
2023/12/03 03:06:54;;;;;;;;;;;2.50;99.90;;;;;;8420104;28;19920;-72
2023/12/03 03:16:00;;;;;;;;;;;2.50;99.90;;;;;;8409818;28;19968;-72
2023/12/03 03:20:01;;;;;;;;;;;2.50;99.90;;;;;;8419118;28;19924;-72
2023/12/03 03:24:03;;;;;;;;;;;2.50;99.90;;;;;;8428507;28;19932;-72
2023/12/03 03:28:05;;;;;;;;;;;2.50;99.90;;;;;;8423757;28;19928;-72
2023/12/03 03:32:06;;;;;;;;;;;2.50;99.90;;;;;;8423925;28;19924;-71
2023/12/03 03:36:08;;;;;;;;;;;2.50;99.90;;;;;;8428192;28;19931;-73
2023/12/03 03:40:10;;;;;;;;;;;2.50;99.90;;;;;;8420321;28;19932;-72
2023/12/03 03:44:12;;;;;;;;;;;2.50;99.90;;;;;;8415639;28;19924;-72
2023/12/03 03:48:14;;;;;;;;;;;2.50;99.90;;;;;;8416839;28;20010;-72
2023/12/03 03:52:15;;;;;;;;;;;2.40;99.90;;;;;;8425423;28;20709;-72
2023/12/03 03:56:17;;;;;;;;;;;2.30;99.90;;;;;;8421318;28;19931;-72
2023/12/03 04:00:19;;;;;;;;;;;2.30;99.90;;;;;;8424905;28;19928;-72
2023/12/03 04:04:20;;;;;;;;;;;2.20;99.90;;;;;;8461254;27;20422;-72
2023/12/03 04:08:22;;;;;;;;;;;2.00;99.90;;;;;;8418650;28;19932;-73
2023/12/03 04:12:24;;;;;;;;;;;1.90;99.90;;;;;;8416651;28;19939;-72
2023/12/03 04:16:25;;;;;;;;;;;1.80;99.90;;;;;;8421066;28;20291;-73
2023/12/03 04:20:27;;;;;;;;;;;1.70;99.90;;;;;;8446461;27;19929;-72
2023/12/03 04:24:29;;;;;;;;;;;1.70;99.90;;;;;;8421036;28;19924;-72
2023/12/03 04:28:30;;;;;;;;;;;1.60;99.90;;;;;;8423955;28;19928;-72
2023/12/03 04:32:32;;;;;;;;;;;1.50;99.90;;;;;;8431947;28;19985;-72
2023/12/03 04:36:34;;;;;;;;;;;1.40;99.90;;;;;;8423000;28;20278;-72
2023/12/03 04:40:35;;;;;;;;;;;1.30;99.90;;;;;;8428885;28;20291;-72
2023/12/03 04:44:37;;;;;;;;;;;1.20;99.90;;;;;;8429191;28;19928;-72
2023/12/03 04:48:40;;;;;;;;;;;1.10;99.90;;;;;;8432758;28;19973;-72
2023/12/03 04:52:41;;;;;;;;;;;1.00;99.90;;;;;;8426871;28;19925;-72
2023/12/03 04:56:43;;;;;;;;;;;1.00;99.90;;;;;;8434279;28;19923;-71
2023/12/03 05:00:45;;;;;;;;;;;1.00;99.90;;;;;;8429322;28;19932;-72
2023/12/03 05:04:47;;;;;;;;;;;1.00;99.90;;;;;;8418286;28;20403;-72
2023/12/03 05:08:48;;;;;;;;;;;1.00;99.90;;;;;;8436220;28;19967;-72
2023/12/03 05:12:50;;;;;;;;;;;1.00;99.90;;;;;;8426438;28;19924;-72
2023/12/03 05:16:52;;;;;;;;;;;0.90;99.90;;;;;;8419961;28;20371;-71
2023/12/03 05:20:54;;;;;;;;;;;0.90;99.90;;;;;;8418136;28;19990;-72
2023/12/03 05:24:56;;;;;;;;;;;0.90;99.90;;;;;;8411484;28;19939;-73
2023/12/03 05:28:57;;;;;;;;;;;0.90;99.90;;;;;;8415229;28;19924;-72
2023/12/03 05:32:59;;;;;;;;;;;0.80;99.90;;;;;;8410956;28;20383;-73
2023/12/03 05:37:02;;;;;;;;;;;0.80;99.90;;;;;;8415076;28;19971;-72
2023/12/03 05:41:03;;;;;;;;;;;0.80;99.90;;;;;;8417043;28;19946;-72
2023/12/03 05:45:06;;;;;;;;;;;0.80;99.90;;;;;;8422400;28;19959;-72
2023/12/03 05:49:08;;;;;;;;;;;0.80;99.90;;;;;;8416790;28;19924;-72
2023/12/03 05:53:10;;;;;;;;;;;0.70;99.90;;;;;;8413151;28;20346;-72
2023/12/03 05:57:12;;;;;;;;;;;0.70;99.90;;;;;;8433842;28;19924;-72
2023/12/03 06:01:32;;;;;;;;;;;0.60;99.90;;;;;;8424327;28;20166;-72
2023/12/03 06:05:34;;;;;;;;;;;0.60;99.90;;;;;;8433396;28;19930;-71
2023/12/03 06:09:36;;;;;;;;;;;0.60;99.90;;;;;;8419617;28;20399;-71
2023/12/03 06:13:37;;;;;;;;;;;0.60;99.90;;;;;;8422755;28;19928;-72
2023/12/03 06:17:39;;;;;;;;;;;0.60;99.90;;;;;;8425381;28;19932;-72
2023/12/03 06:21:41;;;;;;;;;;;0.60;99.90;;;;;;8426495;28;19931;-72
2023/12/03 06:25:43;;;;;;;;;;;0.50;99.90;;;;;;8436854;28;19974;-71
2023/12/03 06:29:44;;;;;;;;;;;0.40;99.90;;;;;;8424936;28;20433;-72
2023/12/03 06:33:46;;;;;;;;;;;0.40;99.90;;;;;;8423293;28;19924;-72
2023/12/03 06:37:48;;;;;;;;;;;0.40;99.90;;;;;;8417307;28;20367;-72
2023/12/03 06:41:50;;;;;;;;;;;0.40;99.90;;;;;;8417027;28;19928;-71
2023/12/03 06:45:52;;;;;;;;;;;0.30;99.90;;;;;;8420698;28;19928;-71
2023/12/03 06:49:53;;;;;;;;;;;0.30;99.90;;;;;;8428235;28;19925;-72
2023/12/03 06:53:55;;;;;;;;;;;0.30;99.90;;;;;;8423198;28;19928;-72
2023/12/03 06:57:58;;;;;;;;;;;0.30;99.90;;;;;;8422416;28;19924;-72
2023/12/03 07:02:00;;;;;;;;;;;0.30;99.90;;;;;;8432635;28;19923;-71
2023/12/03 07:06:02;;;;;;;;;;;0.20;99.90;;;;;;8427892;28;19924;-71
2023/12/03 07:10:04;;;;;;;;;;;0.20;99.90;;;;;;8432583;28;19931;-72
2023/12/03 07:14:06;;;;;;;;;;;0.20;99.90;;;;;;8434742;28;19968;-72
2023/12/03 07:18:08;;;;;;;;;;;0.20;99.90;;;;;;8420005;28;20334;-72
2023/12/03 07:22:10;;;;;;;;;;;0.10;99.90;;;;;;8424566;28;19968;-72
2023/12/03 07:26:11;;;;;;;;;;;0.10;99.90;;;;;;8410576;28;19970;-73
2023/12/03 07:30:13;;;;;;;;;;;0.10;99.90;;;;;;8418996;28;19924;-72
2023/12/03 07:34:15;;;;;;;;;;;0.10;99.90;;;;;;8411138;28;20277;-73
2023/12/03 07:38:17;;;;;;;;;;;0.10;99.90;;;;;;8414539;28;19923;-72
2023/12/03 07:42:18;;;;;;;;;;;0.10;99.90;;;;;;8439950;28;19932;-72
2023/12/03 07:46:20;;;;;;;;;;;0.10;99.90;;;;;;8420948;28;19931;-72
2023/12/03 07:50:22;;;;;;;;;;;0.10;99.90;;;;;;8420861;28;19928;-72
2023/12/03 07:54:24;;;;;;;;;;;0.10;99.90;;;;;;8414995;28;19932;-73
2023/12/03 07:58:25;;;;;;;;;;;0.10;99.90;;;;;;8411495;28;19924;-72
2023/12/03 08:02:27;;;;;;;;;;;0.10;99.90;;;;;;8430750;28;19927;-72
2023/12/03 08:06:29;;;;;;;;;;;0.20;99.90;;;;;;8426174;28;19928;-72
2023/12/03 08:10:30;;;;;;;;;;;0.20;99.90;;;;;;8414498;28;19924;-72
2023/12/03 08:14:32;;;;;;;;;;;0.20;99.90;;;;;;8416530;28;19935;-72
2023/12/03 08:18:34;;;;;;;;;;;0.30;99.90;;;;;;8424702;28;19928;-72
2023/12/03 08:22:36;;;;;;;;;;;0.30;99.90;;;;;;8429046;28;19978;-72
2023/12/03 08:26:38;;;;;;;;;;;0.30;99.90;;;;;;8431468;28;19931;-72
2023/12/03 08:30:40;;;;;;;;;;;0.40;99.90;;;;;;8420929;28;20440;-72
2023/12/03 08:34:42;;;;;;;;;;;0.40;99.90;;;;;;8423708;28;19985;-71
2023/12/03 08:38:44;;;;;;;;;;;0.40;99.90;;;;;;8417108;28;19924;-71
2023/12/03 08:42:45;;;;;;;;;;;0.50;99.90;;;;;;8420485;28;20295;-72
2023/12/03 08:46:47;;;;;;;;;;;0.60;99.90;;;;;;8420912;28;19977;-72
2023/12/03 08:50:49;;;;;;;;;;;0.60;99.90;;;;;;8424598;28;21404;-72
2023/12/03 08:54:51;;;;;;;;;;;0.70;99.90;;;;;;8426964;28;20412;-72
2023/12/03 08:58:53;;;;;;;;;;;0.70;99.90;;;;;;8426861;28;20063;-73
2023/12/03 09:02:55;;;;;;;;;;;0.80;99.90;;;;;;8428337;28;19928;-71
2023/12/03 09:06:56;;;;;;;;;;;0.90;99.90;;;;;;8440665;28;19928;-72
2023/12/03 09:10:58;;;;;;;;;;;1.10;99.90;;;;;;8422637;28;19982;-72
2023/12/03 09:15:00;;;;;;;;;;;1.10;99.90;;;;;;8423450;28;19978;-72
2023/12/03 09:19:02;;;;;;;;;;;1.10;99.90;;;;;;8419059;28;19968;-71
2023/12/03 09:23:03;;;;;;;;;;;1.20;99.90;;;;;;8420693;28;19963;-72
2023/12/03 09:27:05;;;;;;;;;;;1.30;99.90;;;;;;8431968;28;20406;-72
2023/12/03 09:31:07;;;;;;;;;;;1.30;99.90;;;;;;8431209;28;19924;-72
2023/12/03 09:35:08;;;;;;;;;;;1.40;99.90;;;;;;8423128;28;19967;-72
2023/12/03 09:39:10;;;;;;;;;;;1.40;99.90;;;;;;8418472;28;19950;-72
2023/12/03 09:43:13;;;;;;;;;;;1.50;99.90;;;;;;8416632;28;19931;-72
2023/12/03 09:47:15;;;;;;;;;;;1.50;99.90;;;;;;8430043;28;19932;-71
2023/12/03 09:51:18;;;;;;;;;;;1.60;99.90;;;;;;8420599;28;19924;-72
2023/12/03 09:55:22;;;;;;;;;;;1.80;99.90;;;;;;8426478;28;19978;-72
2023/12/03 09:59:26;;;;;;;;;;;1.90;99.90;;;;;;8428588;28;19924;-71
2023/12/03 10:03:28;;;;;;;;;;;2.10;99.90;;;;;;8423930;28;19973;-72
2023/12/03 10:07:29;;;;;;;;;;;2.30;99.90;;;;;;8423250;28;19935;-72
2023/12/03 10:11:40;;;;;;;;;;;2.50;99.90;;;;;;8418642;28;20367;-72
2023/12/03 10:15:43;;;;;;;;;;;2.80;99.90;;;;;;8416776;28;19928;-72
2023/12/03 10:19:45;;;;;;;;;;;3.00;99.90;;;;;;8423180;28;19931;-72
2023/12/03 10:23:56;;;;;;;;;;;3.00;99.90;;;;;;8416330;28;20655;-73
2023/12/03 10:27:59;;;;;;;;;;;2.90;99.90;;;;;;8419843;28;19931;-72
2023/12/03 10:32:01;;;;;;;;;;;2.80;99.90;;;;;;8424274;28;19967;-72
2023/12/03 10:36:03;;;;;;;;;;;2.70;99.90;;;;;;8424743;28;19928;-72
2023/12/03 10:40:06;;;;;;;;;;;2.80;99.90;;;;;;8421556;28;20348;-72
2023/12/03 10:44:12;;;;;;;;;;;3.00;99.90;;;;;;8411861;28;20009;-72
2023/12/03 10:48:14;;;;;;;;;;;3.20;99.90;;;;;;8420180;28;19924;-72
2023/12/03 10:52:16;;;;;;;;;;;3.20;99.90;;;;;;8414122;28;19924;-72
2023/12/03 10:56:19;;;;;;;;;;;3.10;99.90;;;;;;8403631;28;19924;-72
2023/12/03 11:00:21;;;;;;;;;;;3.00;99.90;;;;;;8411252;28;20360;-72
2023/12/03 11:04:41;;;;;;;;;;;2.90;99.90;;;;;;8409100;28;20410;-73
2023/12/03 11:08:45;;;;;;;;;;;3.00;99.90;;;;;;8428880;28;19924;-73
2023/12/03 11:12:47;;;;;;;;;;;3.20;99.90;;;;;;8424454;28;19993;-72
2023/12/03 11:17:01;;;;;;;;;;;3.40;99.90;;;;;;8407567;28;19927;-72
2023/12/03 11:21:19;;;;;;;;;;;3.40;99.90;;;;;;8406342;28;20281;-72
2023/12/03 11:25:24;;;;;;;;;;;3.50;99.90;;;;;;8407573;28;20383;-72
2023/12/03 11:29:44;;;;;;;;;;;3.60;99.90;;;;;;8403368;28;19928;-72
2023/12/03 11:33:50;;;;;;;;;;;3.70;99.90;;;;;;8408826;28;19939;-72
2023/12/03 11:37:53;;;;;;;;;;;3.80;99.90;;;;;;8413163;28;19928;-73
2023/12/03 11:41:58;;;;;;;;;;;3.60;99.90;;;;;;8410204;28;19947;-73
2023/12/03 11:46:00;;;;;;;;;;;3.50;99.90;;;;;;8412892;28;20379;-72
2023/12/03 11:50:02;;;;;;;;;;;3.40;99.90;;;;;;8416896;28;19928;-72
2023/12/03 11:54:06;;;;;;;;;;;3.30;99.90;;;;;;8411663;28;20078;-73
2023/12/03 11:58:08;;;;;;;;;;;3.30;99.90;;;;;;8420902;28;19924;-72
2023/12/03 12:02:10;;;;;;;;;;;3.30;99.90;;;;;;8415683;28;19924;-73
2023/12/03 12:06:12;;;;;;;;;;;3.20;99.90;;;;;;8418786;28;20270;-72
2023/12/03 12:10:14;;;;;;;;;;;3.20;99.90;;;;;;8420336;28;20418;-72
2023/12/03 12:14:19;;;;;;;;;;;3.20;99.90;;;;;;8447588;27;19978;-72
2023/12/03 12:18:23;;;;;;;;;;;3.20;99.90;;;;;;8414516;28;19993;-72
2023/12/03 12:22:25;;;;;;;;;;;3.30;99.90;;;;;;8416869;28;19931;-73
2023/12/03 12:26:26;;;;;;;;;;;3.40;99.90;;;;;;8404133;28;19925;-72
2023/12/03 12:30:29;;;;;;;;;;;3.60;99.90;;;;;;8411467;28;19932;-72
2023/12/03 12:34:35;;;;;;;;;;;3.70;99.90;;;;;;8412245;28;19932;-72
2023/12/03 12:38:43;;;;;;;;;;;3.70;99.90;;;;;;8410291;28;19925;-72
2023/12/03 12:42:46;;;;;;;;;;;3.80;99.90;;;;;;8423314;28;20317;-72
2023/12/03 12:46:55;;;;;;;;;;;3.70;99.90;;;;;;8440068;28;20393;-72
2023/12/03 12:50:57;;;;;;;;;;;3.70;99.90;;;;;;8422723;28;19927;-73
2023/12/03 12:54:59;;;;;;;;;;;3.70;99.90;;;;;;8436225;28;20275;-72
2023/12/03 12:59:06;;;;;;;;;;;3.70;99.90;;;;;;8422049;28;19924;-72
2023/12/03 13:03:08;;;;;;;;;;;3.70;99.90;;;;;;8422012;28;19931;-72
2023/12/03 13:07:10;;;;;;;;;;;3.70;99.90;;;;;;8416366;28;19932;-72
2023/12/03 13:11:11;;;;;;;;;;;3.70;99.90;;;;;;8454791;27;19924;-73
2023/12/03 13:15:13;;;;;;;;;;;3.70;99.90;;;;;;8428905;28;19942;-72
2023/12/03 13:19:16;;;;;;;;;;;3.70;99.90;;;;;;8425225;28;19931;-72
2023/12/03 13:23:18;;;;;;;;;;;3.70;99.90;;;;;;8414269;28;19924;-72
2023/12/03 13:27:20;;;;;;;;;;;3.70;99.90;;;;;;8427562;28;20324;-71
2023/12/03 13:31:21;;;;;;;;;;;3.60;99.90;;;;;;8424612;28;19932;-72
2023/12/03 13:35:23;;;;;;;;;;;3.60;99.90;;;;;;8414877;28;19927;-72
2023/12/03 13:39:25;;;;;;;;;;;3.50;99.90;;;;;;8422837;28;20375;-72
2023/12/03 13:43:26;;;;;;;;;;;3.40;99.90;;;;;;8434022;28;19924;-72
2023/12/03 13:47:28;;;;;;;;;;;3.40;99.90;;;;;;8425269;28;20375;-72
2023/12/03 13:51:30;;;;;;;;;;;3.40;99.90;;;;;;8419757;28;19969;-72
2023/12/03 13:55:31;;;;;;;;;;;3.40;99.90;;;;;;8424358;28;19928;-73
2023/12/03 13:59:33;;;;;;;;;;;3.30;99.90;;;;;;8425166;28;19924;-72
2023/12/03 14:03:35;;;;;;;;;;;3.20;99.90;;;;;;8427936;28;19970;-72
2023/12/03 14:07:38;;;;;;;;;;;3.20;99.90;;;;;;8424814;28;20007;-73
2023/12/03 14:11:40;;;;;;;;;;;3.10;99.90;;;;;;8439818;28;19927;-72
2023/12/03 14:15:42;;;;;;;;;;;3.20;99.90;;;;;;8425186;28;20295;-72
2023/12/03 14:19:43;;;;;;;;;;;3.10;99.90;;;;;;8434510;28;19924;-73
2023/12/03 14:23:45;;;;;;;;;;;3.10;99.90;;;;;;8436914;28;19923;-72
2023/12/03 14:27:47;;;;;;;;;;;3.10;99.90;;;;;;8431167;28;19924;-72
2023/12/03 14:31:48;;;;;;;;;;;3.10;99.90;;;;;;8432700;28;19950;-73
2023/12/03 14:35:50;;;;;;;;;;;3.10;99.90;;;;;;8420266;28;20295;-72
2023/12/03 14:39:52;;;;;;;;;;;3.10;99.90;;;;;;8429572;28;20276;-72
2023/12/03 14:43:54;;;;;;;;;;;3.10;99.90;;;;;;8426316;28;20031;-72
2023/12/03 14:47:56;;;;;;;;;;;3.00;99.90;;;;;;8428730;28;19924;-72
2023/12/03 14:51:59;;;;;;;;;;;3.00;99.90;;;;;;8415551;28;20470;-72
2023/12/03 14:56:01;;;;;;;;;;;3.00;99.90;;;;;;8426655;28;19930;-72
2023/12/03 15:00:05;;;;;;;;;;;3.00;99.90;;;;;;8414559;28;20278;-72
2023/12/03 15:04:07;;;;;;;;;;;2.90;99.90;;;;;;8424813;28;20043;-72
2023/12/03 15:08:08;;;;;;;;;;;2.90;99.90;;;;;;8426369;28;19924;-73
2023/12/03 15:12:10;;;;;;;;;;;2.90;99.90;;;;;;8430361;28;19924;-72
2023/12/03 15:16:12;;;;;;;;;;;2.90;99.90;;;;;;8425805;28;19974;-72
2023/12/03 15:20:15;;;;;;;;;;;2.90;99.90;;;;;;8430723;28;19945;-72
2023/12/03 15:24:17;;;;;;;;;;;2.90;99.90;;;;;;8415612;28;19925;-72
2023/12/03 15:28:18;;;;;;;;;;;2.90;99.90;;;;;;8415076;28;19928;-73
2023/12/03 15:32:20;;;;;;;;;;;2.80;99.90;;;;;;8421254;28;19994;-72
2023/12/03 15:36:22;;;;;;;;;;;2.90;99.90;;;;;;8425257;28;19931;-72
2023/12/03 15:40:24;;;;;;;;;;;2.80;99.90;;;;;;8434346;28;19928;-72
2023/12/03 15:44:27;;;;;;;;;;;2.80;99.90;;;;;;8456488;27;20360;-73
2023/12/03 15:48:29;;;;;;;;;;;2.80;99.90;;;;;;8426631;28;19925;-72
2023/12/03 15:52:30;;;;;;;;;;;2.80;99.90;;;;;;8428396;28;19931;-72
2023/12/03 15:56:32;;;;;;;;;;;2.80;99.90;;;;;;8429140;28;19928;-72
2023/12/03 16:00:37;;;;;;;;;;;2.80;99.90;;;;;;8432853;28;19924;-72
2023/12/03 16:04:41;;;;;;;;;;;2.80;99.90;;;;;;8433712;28;19924;-72
2023/12/03 16:08:43;;;;;;;;;;;2.80;99.90;;;;;;8415211;28;19963;-73
2023/12/03 16:12:45;;;;;;;;;;;2.80;99.90;;;;;;8419247;28;19977;-72
2023/12/03 16:16:46;;;;;;;;;;;2.80;99.90;;;;;;8424005;28;20332;-72
2023/12/03 16:20:48;;;;;;;;;;;2.80;99.90;;;;;;8434729;28;19924;-73
2023/12/03 16:24:51;;;;;;;;;;;2.80;99.90;;;;;;8442783;28;20428;-72
2023/12/03 16:28:53;;;;;;;;;;;2.80;99.90;;;;;;8437853;28;20291;-72
2023/12/03 16:32:55;;;;;;;;;;;2.80;99.90;;;;;;8437318;28;19924;-73
2023/12/03 16:36:56;;;;;;;;;;;2.80;99.90;;;;;;8444652;28;19969;-73
2023/12/03 16:40:59;;;;;;;;;;;2.80;99.90;;;;;;8413635;28;19939;-73
2023/12/03 16:45:01;;;;;;;;;;;2.80;99.90;;;;;;8415055;28;19954;-73
2023/12/03 16:49:03;;;;;;;;;;;2.70;99.90;;;;;;8404790;28;19928;-72
2023/12/03 16:53:05;;;;;;;;;;;2.80;99.90;;;;;;8398510;28;19932;-72
2023/12/03 16:57:08;;;;;;;;;;;2.80;99.90;;;;;;8400154;28;19928;-72
2023/12/03 17:01:09;;;;;;;;;;;2.80;99.90;;;;;;8393242;28;19924;-72
2023/12/03 17:05:12;;;;;;;;;;;2.80;99.90;;;;;;8403539;28;20026;-72
2023/12/03 17:09:13;;;;;;;;;;;2.80;99.90;;;;;;8403203;28;19928;-72
2023/12/03 17:13:15;;;;;;;;;;;2.80;99.90;;;;;;8405909;28;20269;-72
2023/12/03 17:17:18;;;;;;;;;;;2.70;99.90;;;;;;8431817;27;19974;-73
2023/12/03 17:21:21;;;;;;;;;;;2.70;99.90;;;;;;8398210;28;20324;-72
2023/12/03 17:30:26;;;;;;;;;;;2.60;99.90;;;;;;8395375;28;20003;-73
2023/12/03 17:34:27;;;;;;;;;;;2.50;99.90;;;;;;8388661;28;19931;-72
2023/12/03 17:38:29;;;;;;;;;;;2.40;99.90;;;;;;8425009;27;19971;-72
2023/12/03 17:42:31;;;;;;;;;;;2.30;99.90;;;;;;8394720;28;19979;-72
2023/12/03 17:46:33;;;;;;;;;;;2.30;99.90;;;;;;8391513;28;20300;-72
2023/12/03 17:50:34;;;;;;;;;;;2.20;99.90;;;;;;8391614;28;20368;-73
2023/12/03 17:54:36;;;;;;;;;;;2.20;99.90;;;;;;8393369;28;19987;-72
2023/12/03 17:58:38;;;;;;;;;;;2.10;99.90;;;;;;8397923;28;20015;-73
2023/12/03 18:02:41;;;;;;;;;;;2.10;99.90;;;;;;8397319;28;19928;-73
2023/12/03 18:06:42;;;;;;;;;;;2.10;99.90;;;;;;8425789;27;19924;-72
2023/12/03 18:10:45;;;;;;;;;;;2.00;99.90;;;;;;8395960;28;19978;-72
2023/12/03 18:14:47;;;;;;;;;;;2.00;99.90;;;;;;8395466;28;20002;-73
2023/12/03 18:18:48;;;;;;;;;;;2.00;99.90;;;;;;8400275;28;20006;-73
2023/12/03 18:22:50;;;;;;;;;;;1.90;99.90;;;;;;8396795;28;19924;-72
2023/12/03 18:26:52;;;;;;;;;;;1.90;99.90;;;;;;8395548;28;20384;-72
2023/12/03 18:30:54;;;;;;;;;;;1.80;99.90;;;;;;8395407;28;19967;-72
2023/12/03 18:34:56;;;;;;;;;;;1.70;99.90;;;;;;8395620;28;19969;-72
2023/12/03 18:38:57;;;;;;;;;;;1.70;99.90;;;;;;8394116;28;20507;-73
2023/12/03 18:42:59;;;;;;;;;;;1.70;99.90;;;;;;8396226;28;19932;-72
2023/12/03 18:47:01;;;;;;;;;;;1.70;99.90;;;;;;8394135;28;19925;-72
2023/12/03 18:51:03;;;;;;;;;;;1.70;99.90;;;;;;8393970;28;19928;-73
2023/12/03 18:55:05;;;;;;;;;;;1.60;99.90;;;;;;8394892;28;20459;-72
2023/12/03 18:59:08;;;;;;;;;;;1.70;99.90;;;;;;8395531;28;19929;-72
2023/12/03 19:03:09;;;;;;;;;;;1.70;99.90;;;;;;8403707;28;19935;-72
2023/12/03 19:07:11;;;;;;;;;;;1.70;99.90;;;;;;8393150;28;19975;-73
2023/12/03 19:11:13;;;;;;;;;;;1.60;99.90;;;;;;8389866;28;19927;-72
2023/12/03 19:15:15;;;;;;;;;;;1.60;99.90;;;;;;8390994;28;19928;-72
2023/12/03 19:19:17;;;;;;;;;;;1.60;99.90;;;;;;8393566;28;19954;-72
2023/12/03 19:23:19;;;;;;;;;;;1.60;99.90;;;;;;8394455;28;19933;-73
2023/12/03 19:27:21;;;;;;;;;;;1.60;99.90;;;;;;8398605;28;20303;-72
2023/12/03 19:31:22;;;;;;;;;;;1.60;99.90;;;;;;8401253;28;20374;-72
2023/12/03 19:35:24;;;;;;;;;;;1.60;99.90;;;;;;8393479;28;19931;-73
2023/12/03 19:39:26;;;;;;;;;;;1.50;99.90;;;;;;8390803;28;20364;-73
2023/12/03 19:43:30;;;;;;;;;;;1.60;99.90;;;;;;8422864;27;19924;-72
2023/12/03 19:47:33;;;;;;;;;;;1.50;99.90;;;;;;8392407;28;19982;-72
2023/12/03 19:51:34;;;;;;;;;;;1.60;99.90;;;;;;8385522;28;19924;-72
2023/12/03 19:55:36;;;;;;;;;;;1.60;99.90;;;;;;8386410;28;19925;-72
2023/12/03 19:59:38;;;;;;;;;;;1.60;99.90;;;;;;8398864;28;19932;-72
2023/12/03 20:03:40;;;;;;;;;;;1.50;99.90;;;;;;8399283;28;19935;-72
2023/12/03 20:07:42;;;;;;;;;;;1.60;99.90;;;;;;8394983;28;20339;-72
2023/12/03 20:11:44;;;;;;;;;;;1.50;99.90;;;;;;8396037;28;20288;-72
2023/12/03 20:15:46;;;;;;;;;;;1.50;99.90;;;;;;8399928;28;19925;-73
2023/12/03 20:19:48;;;;;;;;;;;1.50;99.90;;;;;;8399560;28;20076;-72
2023/12/03 20:23:50;;;;;;;;;;;1.50;99.90;;;;;;8395072;28;19929;-72
2023/12/03 20:27:51;;;;;;;;;;;1.50;99.90;;;;;;8404056;28;19924;-72
2023/12/03 20:31:53;;;;;;;;;;;1.50;99.90;;;;;;8397327;28;19935;-72
2023/12/03 20:35:55;;;;;;;;;;;1.50;99.90;;;;;;8392581;28;19924;-72
2023/12/03 21:05:14;;;;;;;;;;;1.40;99.90;;;;;;8395278;28;20432;-72
2023/12/03 21:09:19;;;;;;;;;;;1.50;99.90;;;;;;8398089;28;19943;-72
2023/12/03 21:33:53;;;;;;;;;;;1.50;99.90;;;;;;8374759;28;19927;-72
2023/12/03 21:37:55;;;;;;;;;;;1.50;99.90;;;;;;8395389;28;19935;-72
2023/12/03 21:41:56;;;;;;;;;;;1.50;99.90;;;;;;8401935;28;19925;-72
2023/12/03 21:45:58;;;;;;;;;;;1.50;99.90;;;;;;8398861;28;19951;-72
2023/12/03 21:50:01;;;;;;;;;;;1.50;99.90;;;;;;8391021;28;19933;-72
2023/12/03 21:54:02;;;;;;;;;;;1.60;99.90;;;;;;8390747;28;19943;-72
2023/12/03 21:58:04;;;;;;;;;;;1.60;99.90;;;;;;8390047;28;20243;-72
2023/12/03 22:02:06;;;;;;;;;;;1.60;99.90;;;;;;8394385;28;19985;-73
2023/12/03 22:06:08;;;;;;;;;;;1.60;99.90;;;;;;8406786;28;20026;-72
2023/12/03 22:10:09;;;;;;;;;;;1.60;99.90;;;;;;8405643;28;19932;-72
2023/12/03 22:14:13;;;;;;;;;;;1.60;99.90;;;;;;8409093;28;19924;-73
2023/12/03 22:18:15;;;;;;;;;;;1.60;99.90;;;;;;8406223;28;19932;-73
2023/12/03 22:22:17;;;;;;;;;;;1.60;99.90;;;;;;8404199;28;19924;-73
2023/12/03 22:26:19;;;;;;;;;;;1.60;99.90;;;;;;8413405;28;19928;-72
2023/12/03 22:30:21;;;;;;;;;;;1.60;99.90;;;;;;8432715;28;19932;-73
2023/12/03 22:34:23;;;;;;;;;;;1.60;99.90;;;;;;8425155;28;19924;-72
2023/12/03 22:38:25;;;;;;;;;;;1.60;99.90;;;;;;8420016;28;19931;-73
2023/12/03 22:42:27;;;;;;;;;;;1.60;99.90;;;;;;8423489;28;20244;-72
2023/12/03 22:46:29;;;;;;;;;;;1.60;99.90;;;;;;8423318;28;19969;-72
2023/12/03 22:50:31;;;;;;;;;;;1.50;99.90;;;;;;8417946;28;19932;-73
2023/12/03 22:54:32;;;;;;;;;;;1.50;99.90;;;;;;8424826;28;20367;-72
2023/12/03 22:58:34;;;;;;;;;;;1.60;99.90;;;;;;8428596;28;19939;-72
2023/12/03 23:02:37;;;;;;;;;;;1.60;99.90;;;;;;8405821;28;19924;-72
2023/12/03 23:06:39;;;;;;;;;;;1.60;99.90;;;;;;8406032;28;19936;-73
2023/12/03 23:10:40;;;;;;;;;;;1.60;99.90;;;;;;8420978;28;19951;-73
2023/12/03 23:14:42;;;;;;;;;;;1.60;99.90;;;;;;8425888;28;20403;-73
2023/12/03 23:18:44;;;;;;;;;;;1.60;99.90;;;;;;8420463;28;19968;-73
2023/12/03 23:22:45;;;;;;;;;;;1.50;99.90;;;;;;8419104;28;19932;-72
2023/12/03 23:26:47;;;;;;;;;;;1.60;99.90;;;;;;8414682;28;19924;-72
2023/12/03 23:30:49;;;;;;;;;;;1.60;99.90;;;;;;8420712;28;19924;-72
2023/12/03 23:34:50;;;;;;;;;;;1.60;99.90;;;;;;8422987;28;19967;-72
2023/12/03 23:38:52;;;;;;;;;;;1.60;99.90;;;;;;8423550;28;19924;-73
2023/12/03 23:42:54;;;;;;;;;;;1.60;99.90;;;;;;8423017;28;20291;-72
2023/12/03 23:46:55;;;;;;;;;;;1.60;99.90;;;;;;8421566;28;19960;-72
2023/12/03 23:50:57;;;;;;;;;;;1.60;99.90;;;;;;8420438;28;20342;-73
2023/12/03 23:54:59;;;;;;;;;;;1.70;99.90;;;;;;8410847;28;19928;-72
2023/12/03 23:59:01;;;;;;;;;;;1.70;99.90;;;;;;8405855;28;19939;-72
